createdAt,value
2022-11-16T00:03:16.729Z,5.15
2022-11-16T00:08:19.273Z,3.78
2022-11-16T00:13:23.204Z,3.92
2022-11-16T00:18:25.770Z,3.55
2022-11-16T00:23:28.393Z,4.68
2022-11-16T00:28:32.536Z,4.88
2022-11-16T00:33:35.602Z,3.47
2022-11-16T00:38:38.183Z,2.65
2022-11-16T00:43:43.682Z,4.93
2022-11-16T00:48:46.216Z,4.00
2022-11-16T00:53:48.771Z,4.90
2022-11-16T00:58:52.661Z,4.90
2022-11-16T01:03:55.313Z,4.53
2022-11-16T01:08:58.456Z,4.68
2022-11-16T01:14:08.791Z,4.53
2022-11-16T01:19:11.514Z,5.20
2022-11-16T01:24:14.124Z,5.38
2022-11-16T01:29:18.095Z,4.60
2022-11-16T01:34:20.828Z,3.92
2022-11-16T01:39:23.393Z,4.85
2022-11-16T01:44:44.856Z,4.57
2022-11-16T01:49:49.552Z,4.82
2022-11-16T01:54:53.271Z,4.75
2022-11-16T01:59:57.899Z,5.60
2022-11-16T02:05:06.802Z,5.95
2022-11-16T02:10:12.678Z,5.82
2022-11-16T02:15:21.545Z,5.63
2022-11-16T02:20:35.774Z,5.93
2022-11-16T02:25:44.144Z,6.03
2022-11-16T02:30:51.479Z,6.53
2022-11-16T02:35:55.888Z,6.80
2022-11-16T02:41:00.019Z,6.40
2022-11-16T02:51:07.574Z,7.85
2022-11-16T02:56:12.861Z,6.70
2022-11-16T03:01:17.420Z,9.50
2022-11-16T03:06:23.482Z,6.35
2022-11-16T03:11:43.711Z,9.05
2022-11-16T03:16:47.443Z,8.13
2022-11-16T03:21:55.044Z,7.03
2022-11-16T03:27:00.956Z,5.97
2022-11-16T03:32:06.080Z,6.90
2022-11-16T03:37:11.463Z,7.88
2022-11-16T03:42:15.136Z,8.10
2022-11-16T03:47:17.689Z,6.50
2022-11-16T03:52:21.917Z,8.55
2022-11-16T04:02:26.924Z,8.70
2022-11-16T04:07:53.573Z,7.97
2022-11-16T04:13:13.955Z,8.88
2022-11-16T04:18:34.535Z,8.20
2022-11-16T04:23:56.436Z,8.70
2022-11-16T04:28:58.985Z,8.63
2022-11-16T04:34:18.964Z,7.90
2022-11-16T04:39:22.921Z,7.78
2022-11-16T04:44:45.452Z,8.20
2022-11-16T04:49:48.553Z,7.45
2022-11-16T04:54:52.917Z,8.27
2022-11-16T04:59:55.472Z,8.82
2022-11-16T05:04:58.092Z,7.68
2022-11-16T05:10:03.650Z,8.10
2022-11-16T05:15:07.078Z,7.05
2022-11-16T05:20:30.857Z,7.97
2022-11-16T05:25:36.933Z,7.28
2022-11-16T05:30:39.872Z,8.85
2022-11-16T05:35:42.802Z,8.25
2022-11-16T05:40:46.687Z,6.03
2022-11-16T05:45:49.270Z,7.53
2022-11-16T05:50:58.830Z,6.82
2022-11-16T05:56:02.969Z,8.75
2022-11-16T06:06:08.155Z,3.45
2022-11-16T06:11:12.232Z,8.15
2022-11-16T06:16:14.807Z,6.72
2022-11-16T06:21:18.446Z,7.85
2022-11-16T06:26:22.354Z,7.25
2022-11-16T06:31:24.919Z,7.15
2022-11-16T06:36:27.537Z,8.73
2022-11-16T06:41:32.115Z,7.00
2022-11-16T06:46:34.914Z,6.43
2022-11-16T06:51:37.457Z,7.10
2022-11-16T06:56:41.375Z,5.35
2022-11-16T07:01:43.994Z,6.65
2022-11-16T07:06:47.478Z,4.85
2022-11-16T07:11:51.466Z,6.50
2022-11-16T07:16:59.319Z,5.15
2022-11-16T07:22:04.256Z,5.05
2022-11-16T07:27:09.556Z,5.07
2022-11-16T07:32:13.274Z,4.78
2022-11-16T07:37:52.313Z,4.20
2022-11-16T07:43:30.936Z,4.82
2022-11-16T07:48:36.004Z,5.18
2022-11-16T07:53:38.888Z,5.10
2022-11-16T07:58:45.857Z,4.68
2022-11-16T08:03:53.674Z,4.88
2022-11-16T08:08:58.585Z,4.22
2022-11-16T08:14:01.479Z,3.83
2022-11-16T08:19:05.520Z,5.20
2022-11-16T08:24:09.037Z,4.20
2022-11-16T08:29:11.882Z,4.00
2022-11-16T08:34:15.821Z,4.55
2022-11-16T08:39:18.535Z,3.30
2022-11-16T08:44:21.129Z,4.20
2022-11-16T08:49:24.983Z,3.60
2022-11-16T08:54:29.029Z,2.10
2022-11-16T08:59:32.580Z,3.10
2022-11-16T09:04:37.763Z,4.38
2022-11-16T09:09:40.321Z,3.60
2022-11-16T09:14:42.861Z,3.70
2022-11-16T09:19:46.941Z,2.13
2022-11-16T09:24:56.410Z,3.00
2022-11-16T09:29:59.834Z,3.30
2022-11-16T09:35:03.889Z,3.58
2022-11-16T09:40:07.185Z,2.63
2022-11-16T09:45:16.369Z,2.80
2022-11-16T09:50:25.123Z,2.13
2022-11-16T09:55:30.805Z,3.00
2022-11-16T10:00:34.258Z,3.72
2022-11-16T10:05:39.832Z,3.55
2022-11-16T10:10:50.735Z,3.38
2022-11-16T10:15:57.553Z,4.35
2022-11-16T10:21:10.155Z,4.40
2022-11-16T10:26:20.935Z,3.75
2022-11-16T10:31:29.520Z,3.80
2022-11-16T10:36:36.460Z,3.40
2022-11-16T10:41:41.941Z,3.20
2022-11-16T10:46:46.594Z,3.58
2022-11-16T10:51:50.547Z,2.83
2022-11-16T10:56:58.113Z,2.33
2022-11-16T11:02:21.184Z,3.58
2022-11-16T11:07:30.547Z,3.10
2022-11-16T11:12:38.940Z,4.28
2022-11-16T11:17:42.789Z,3.88
2022-11-16T11:22:50.742Z,3.63
2022-11-16T11:28:03.207Z,3.80
2022-11-16T11:33:10.702Z,3.65
2022-11-16T11:38:15.844Z,3.60
2022-11-16T11:43:23.126Z,3.38
2022-11-16T11:48:30.720Z,4.03
2022-11-16T11:53:51.349Z,3.40
2022-11-16T11:58:55.746Z,3.35
2022-11-16T12:04:16.191Z,3.40
2022-11-16T12:09:25.513Z,3.13
2022-11-16T12:14:35.027Z,3.00
2022-11-16T12:19:46.586Z,3.38
2022-11-16T12:24:56.720Z,3.47
2022-11-16T12:30:04.284Z,3.28
2022-11-16T12:35:26.103Z,3.60
2022-11-16T12:40:36.407Z,3.45
2022-11-16T12:45:49.186Z,3.53
2022-11-16T12:50:54.550Z,3.00
2022-11-16T12:56:00.524Z,0.82
2022-11-16T13:01:11.843Z,1.23
2022-11-16T13:06:17.678Z,3.70
2022-11-16T13:11:21.821Z,1.98
2022-11-16T13:16:26.381Z,2.70
2022-11-16T13:21:35.156Z,2.17
2022-11-16T13:26:41.782Z,1.38
2022-11-16T13:31:49.990Z,1.95
2022-11-16T13:36:57.495Z,1.30
2022-11-16T13:42:06.921Z,1.70
2022-11-16T13:47:20.503Z,1.23
2022-11-16T13:53:28.365Z,1.80
2022-11-16T13:58:05.519Z,1.70
2022-11-16T14:03:26.760Z,1.40
2022-11-16T14:08:47.323Z,1.40
2022-11-16T14:13:49.841Z,1.23
2022-11-16T14:18:53.461Z,1.88
2022-11-16T14:24:16.717Z,4.90
2022-11-16T14:29:29.269Z,4.25
2022-11-16T14:34:33.516Z,4.22
2022-11-16T14:39:41.109Z,4.55
2022-11-16T14:44:45.361Z,3.55
2022-11-16T14:49:48.003Z,4.05
2022-11-16T14:54:53.004Z,2.45
2022-11-16T15:00:09.454Z,2.00
2022-11-16T15:05:16.776Z,1.98
2022-11-16T15:10:20.833Z,2.10
2022-11-16T15:20:28.481Z,2.53
2022-11-16T15:25:32.402Z,4.05
2022-11-16T15:30:37.016Z,1.85
2022-11-16T15:35:41.132Z,2.80
2022-11-16T15:45:46.824Z,3.90
2022-11-16T15:51:02.998Z,2.40
2022-11-16T15:56:09.147Z,2.13
2022-11-16T16:01:13.617Z,2.67
2022-11-16T16:06:37.657Z,2.83
2022-11-16T16:11:40.602Z,3.15
2022-11-16T16:16:43.316Z,3.35
2022-11-16T16:21:47.892Z,4.57
2022-11-16T16:26:50.469Z,2.85
2022-11-16T16:31:53.071Z,2.72
2022-11-16T16:36:57.019Z,1.92
2022-11-16T16:41:59.567Z,10.32
2022-11-16T16:47:02.047Z,4.78
2022-11-16T16:52:06.970Z,12.20
2022-11-16T16:57:13.079Z,4.45
2022-11-16T17:02:16.242Z,3.83
2022-11-16T17:07:20.977Z,4.47
2022-11-16T17:12:23.539Z,4.43
2022-11-16T17:17:26.275Z,4.88
2022-11-16T17:22:30.213Z,5.28
2022-11-16T17:27:32.979Z,8.32
2022-11-16T17:32:36.084Z,6.90
2022-11-16T17:37:39.974Z,10.52
2022-11-16T17:42:46.243Z,10.10
2022-11-16T17:47:48.826Z,7.10
2022-11-16T17:52:52.784Z,4.00
2022-11-16T17:57:55.320Z,5.30
2022-11-16T18:02:57.843Z,5.13
2022-11-16T18:08:02.320Z,6.38
2022-11-16T18:13:05.292Z,6.53
2022-11-16T18:18:07.796Z,6.07
2022-11-16T18:23:14.673Z,5.38
2022-11-16T18:28:18.473Z,5.78
2022-11-16T18:38:24.967Z,2.92
2022-11-16T18:43:27.463Z,2.85
2022-11-16T18:48:34.984Z,2.95
2022-11-16T18:53:39.034Z,5.00
2022-11-16T19:03:54.596Z,4.28
2022-11-16T19:08:59.686Z,4.20
2022-11-16T19:14:03.853Z,4.18
2022-11-16T19:24:10.736Z,5.20
2022-11-16T19:29:13.449Z,3.63
2022-11-16T19:34:17.450Z,3.92
2022-11-16T19:39:21.347Z,4.43
2022-11-16T19:44:23.883Z,2.58
2022-11-16T19:49:26.560Z,2.95
2022-11-16T19:54:30.634Z,2.88
2022-11-16T20:04:36.048Z,4.03
2022-11-16T20:09:39.911Z,4.13
2022-11-16T20:14:42.712Z,4.18
2022-11-16T20:19:45.333Z,1.48
2022-11-16T20:24:49.567Z,2.85
2022-11-16T20:34:54.633Z,2.97
2022-11-16T20:39:58.787Z,2.75
2022-11-16T20:50:04.323Z,3.50
2022-11-16T20:55:08.758Z,5.18
2022-11-16T21:00:11.943Z,4.70
2022-11-16T21:05:14.671Z,3.40
2022-11-16T21:10:22.180Z,4.53
2022-11-16T21:15:24.780Z,3.63
2022-11-16T21:20:28.644Z,4.00
2022-11-16T21:25:33.192Z,3.28
2022-11-16T21:30:36.192Z,3.35
2022-11-16T21:35:38.683Z,4.30
2022-11-16T21:40:42.629Z,4.72
2022-11-16T21:45:45.819Z,5.00
2022-11-16T21:50:49.575Z,2.58
2022-11-16T21:55:53.527Z,1.65
2022-11-16T22:00:57.255Z,4.30
2022-11-16T22:06:18.304Z,3.70
2022-11-16T22:11:22.745Z,2.33
2022-11-16T22:16:25.358Z,1.65
2022-11-16T22:21:27.920Z,3.20
2022-11-16T22:26:31.927Z,3.00
2022-11-16T22:31:35.606Z,3.55
2022-11-16T22:36:38.183Z,3.47
2022-11-16T22:41:42.135Z,3.22
2022-11-16T22:46:44.709Z,0.75
2022-11-16T22:51:47.290Z,1.38
2022-11-16T22:56:51.192Z,1.27
2022-11-16T23:01:56.800Z,2.47
2022-11-16T23:07:00.455Z,3.03
2022-11-16T23:12:22.212Z,3.00
2022-11-16T23:17:24.775Z,1.27
2022-11-16T23:22:45.167Z,1.88
2022-11-16T23:27:54.564Z,2.05
2022-11-16T23:32:57.088Z,2.03
2022-11-16T23:38:00.753Z,3.03
2022-11-16T23:43:22.860Z,2.85
2022-11-16T23:48:25.376Z,2.70
2022-11-16T23:53:28.290Z,2.08
2022-11-16T23:58:32.355Z,1.73
